Terminal Aerodrome Forecast
Issued by NWS

Home | Current Version | Previous Version | Text Only | Print | Product List | Glossary On
Versions: 1 2 3 4 5 6 7 8 9 10 11 12 13 14 15 16 17 18 19 20 21 22
000
FTUS42 TJSJ 112300
TAFJBQ
TAF
TJBQ 112340Z 1200/1224 VRB05KT P6SM FEW040
     FM121300 07015KT P6SM FEW030
     FM122200 08010KT P6SM SCT030
      AMD NOT SKED 1202/1211=

USA.gov is the U.S. government's official web portal to all federal, state and local government web resources and services.